Queen Of Cowichan — CZ4990 — position and weather

sailwx.info

Track history (hours):
 
Tides and Currents Weather Stations Pressure Air Temp Water Temp Dewpoint Dewpoint Depression Visibility Wind Speed Wind Dir Waves Ship Positions

Queen Of Cowichan

Last reported at 2017-May-24 05:50 UTC. Time now 2017-May-24 07:57 UTC.
Position N 49°16' W 123°45'.

Length 139 m.

Type: Passenger vessel. MMSI: 316001251.

Date/timePositionNaut miles runAvg speedWind from/ knotsBaromVisibWave heightAir tempDewpointWater temp
2017-May-24 05:50N 49°16' W 123°45'619.1
2017-May-24 05:30N 49°17' W 123°36'1019.3
2017-May-24 05:00N 49°20' W 123°21'4 5.7
2017-May-24 04:17N 49°23' W 123°16'1 4.7
2017-May-24 04:00N 49°22' W 123°18'1019.5
2017-May-24 03:30N 49°16' W 123°30'12 6.6
2017-May-24 01:37N 49°15' W 123°49'318.9
2017-May-24 01:29N 49°15' W 123°45'918.8
2017-May-24 01:00N 49°18' W 123°32'1018.9
2017-May-24 00:30N 49°22' W 123°18'2 2.2
2017-May-23 23:46N 49°23' W 123°16'517.1
2017-May-23 23:30N 49°20' W 123°21'1020.5
2017-May-23 23:00N 49°16' W 123°36'12 7.1
2017-May-23 21:19N 49°13' W 123°54'720.0
2017-May-23 20:59N 49°16' W 123°45'1019.9
2017-May-23 20:30N 49°18' W 123°30'918.8
2017-May-23 20:01N 49°23' W 123°18'1 1.2
2017-May-23 19:14N 49°23' W 123°16'415.8
2017-May-23 19:00N 49°20' W 123°21'918.6
2017-May-23 18:30N 49°17' W 123°34'1220.8
2017-May-23 17:57N 49°14' W 123°51'1 0.6
2017-May-23 16:48N 49°14' W 123°50'619.6
2017-May-23 16:30N 49°16' W 123°41'1019.9
2017-May-23 16:01N 49°18' W 123°27'8 8.6
2017-May-23 15:03N 49°23' W 123°16'0 7.8
2017-May-23 15:00N 49°23' W 123°16'917.7
2017-May-23 14:30N 49°18' W 123°27'20 2.4
2017-May-23 06:02N 49°12' W 123°57'319.6
2017-May-23 05:54N 49°13' W 123°53'820.0
2017-May-23 05:30N 49°16' W 123°42'1020.0
2017-May-23 05:00N 49°19' W 123°28'816.4
2017-May-23 04:30N 49°23' W 123°16'0 0.7
2017-May-23 03:59N 49°23' W 123°16'918.3
2017-May-23 03:30N 49°18' W 123°27'1020.7
2017-May-23 03:00N 49°15' W 123°42'10 9.6
2017-May-23 01:56N 49°12' W 123°57'818.4
2017-May-23 01:30N 49°15' W 123°47'1019.9
2017-May-23 01:00N 49°18' W 123°32'1019.1
2017-May-23 00:30N 49°22' W 123°19'2 2.8
2017-May-22 23:54N 49°23' W 123°16'718.0
2017-May-22 23:30N 49°18' W 123°25'1020.5
2017-May-22 23:00N 49°16' W 123°40'12 9.1
2017-May-22 21:43N 49°12' W 123°57'619.2
2017-May-22 21:23N 49°15' W 123°48'820.2
2017-May-22 21:00N 49°17' W 123°37'1020.3
2017-May-22 20:30N 49°19' W 123°22'5 6.7
2017-May-22 19:45N 49°23' W 123°16'2 8.3
2017-May-22 19:31N 49°22' W 123°19'1019.3
2017-May-22 19:00N 49°17' W 123°32'1020.6
2017-May-22 18:30N 49°15' W 123°47'7 6.7
2017-May-22 17:31N 49°12' W 123°57'012.8
2017-May-22 17:30N 49°12' W 123°57'1019.7
2017-May-22 17:00N 49°16' W 123°43'1020.1
2017-May-22 16:30N 49°19' W 123°28'9 8.2
2017-May-22 15:28N 49°23' W 123°16'0 0.7
2017-May-22 14:53N 49°23' W 123°16'1719.0
2017-May-22 14:00N 49°15' W 123°39'1120.7
2017-May-22 13:29N 49°13' W 123°55'1 0.2
2017-May-22 06:00N 49°12' W 123°57'1019.9
2017-May-22 05:30N 49°16' W 123°43'1120.7
2017-May-22 05:00N 49°19' W 123°28'9 8.6
2017-May-22 04:00N 49°23' W 123°16'917.9
2017-May-22 03:30N 49°18' W 123°28'1020.6
2017-May-22 03:00N 49°15' W 123°43'10 8.9
2017-May-22 01:54N 49°12' W 123°57'818.5
2017-May-22 01:29N 49°15' W 123°47'1019.7
2017-May-22 01:00N 49°18' W 123°33'1019.2
2017-May-22 00:30N 49°22' W 123°19'2 2.7
2017-May-21 23:40N 49°23' W 123°16'214.5
2017-May-21 23:30N 49°21' W 123°19'1019.8
2017-May-21 23:00N 49°17' W 123°33'1020.7
2017-May-21 22:30N 49°14' W 123°48'4 3.0
2017-May-21 21:15N 49°13' W 123°54'519.9
2017-May-21 21:00N 49°15' W 123°47'1020.0
2017-May-21 20:31N 49°18' W 123°32'1019.2
2017-May-21 20:00N 49°22' W 123°19'2 2.4
2017-May-21 19:14N 49°23' W 123°16'314.9
2017-May-21 19:00N 49°21' W 123°20'1019.9
2017-May-21 18:31N 49°16' W 123°34'1220.8
2017-May-21 17:56N 49°14' W 123°51'4 4.7
2017-May-21 17:03N 49°12' W 123°57'215.4
2017-May-21 16:54N 49°13' W 123°54'820.1
2017-May-21 16:30N 49°16' W 123°43'1020.3
2017-May-21 16:00N 49°19' W 123°28'910.5
2017-May-21 15:11N 49°23' W 123°16'0 0.0
2017-May-21 14:57N 49°23' W 123°16'614.4
2017-May-21 14:30N 49°19' W 123°24'19 2.2
2017-May-21 05:51N 49°14' W 123°53'720.3
2017-May-21 05:30N 49°16' W 123°43'1020.3
2017-May-21 05:00N 49°19' W 123°28'916.4
2017-May-21 04:29N 49°23' W 123°16'0 0.3
2017-May-21 04:01N 49°23' W 123°16'917.7
2017-May-21 03:30N 49°18' W 123°28'1120.7
2017-May-21 02:59N 49°15' W 123°44'9 8.9
2017-May-21 01:56N 49°12' W 123°57'819.3
2017-May-21 01:30N 49°15' W 123°46'1019.7
2017-May-21 01:00N 49°18' W 123°31'918.6
2017-May-21 00:30N 49°22' W 123°19'2 2.0
2017-May-20 23:40N 49°23' W 123°16'214.4
2017-May-20 23:30N 49°22' W 123°19'1019.9
2017-May-20 23:00N 49°17' W 123°33'1710.3
2017-May-20 21:24N 49°12' W 123°57'819.8
2017-May-20 21:00N 49°15' W 123°46'1020.1
2017-May-20 20:30N 49°18' W 123°31'1019.1
2017-May-20 20:00N 49°22' W 123°18'1 1.9
2017-May-20 19:14N 49°23' W 123°16'314.8
2017-May-20 19:00N 49°21' W 123°20'1020.1
2017-May-20 18:30N 49°17' W 123°34'1510.5
2017-May-20 17:03N 49°12' W 123°57'519.2
2017-May-20 16:46N 49°14' W 123°49'520.0
2017-May-20 16:31N 49°16' W 123°42'1020.1
2017-May-20 16:00N 49°19' W 123°27'810.7
2017-May-20 15:15N 49°23' W 123°16'0 0.8
2017-May-20 14:52N 49°23' W 123°16'1618.8
2017-May-20 14:00N 49°16' W 123°39'11 1.4
2017-May-20 05:57N 49°13' W 123°55'920.2
2017-May-20 05:30N 49°16' W 123°43'1020.1
2017-May-20 05:00N 49°19' W 123°28'915.5
2017-May-20 04:27N 49°23' W 123°16'1 1.3
2017-May-20 04:00N 49°23' W 123°16'918.8
2017-May-20 03:31N 49°18' W 123°28'1020.8
2017-May-20 03:01N 49°15' W 123°43'5 4.0
2017-May-20 01:41N 49°14' W 123°52'420.4
2017-May-20 01:29N 49°16' W 123°46'919.4
2017-May-20 01:00N 49°18' W 123°33'918.9
2017-May-20 00:30N 49°22' W 123°19'2 2.7
2017-May-19 23:42N 49°23' W 123°16'212.7
2017-May-19 23:30N 49°21' W 123°19'1020.1
2017-May-19 23:00N 49°17' W 123°33'1120.9
2017-May-19 22:28N 49°14' W 123°50'2 1.8
2017-May-19 21:07N 49°15' W 123°47'220.0
2017-May-19 21:00N 49°16' W 123°43'1019.8
2017-May-19 20:30N 49°19' W 123°29'918.4
2017-May-19 20:00N 49°23' W 123°17'0 0.5
2017-May-19 19:23N 49°23' W 123°16'717.7
2017-May-19 19:00N 49°19' W 123°24'1020.7
2017-May-19 18:30N 49°16' W 123°40'3 1.6
2017-May-19 16:37N 49°15' W 123°44'220.1
2017-May-19 16:30N 49°16' W 123°41'1019.7
2017-May-19 16:00N 49°19' W 123°27'8 7.3
2017-May-19 14:56N 49°23' W 123°16'1617.2
2017-May-19 14:00N 49°16' W 123°39'13 1.7
2017-May-19 06:13N 49°12' W 123°57'518.1
2017-May-19 05:58N 49°14' W 123°51'920.3
2017-May-19 05:30N 49°17' W 123°38'1020.1
2017-May-19 05:00N 49°19' W 123°23'510.1
2017-May-19 04:28N 49°23' W 123°16'3 6.3
2017-May-19 04:00N 49°21' W 123°20'1019.6
2017-May-19 03:30N 49°17' W 123°34'13 7.8
2017-May-19 01:50N 49°14' W 123°53'720.1
2017-May-19 01:30N 49°16' W 123°44'1020.0
2017-May-19 01:00N 49°18' W 123°29'9 7.9
2017-May-18 23:50N 49°23' W 123°17'617.3
2017-May-18 23:30N 49°19' W 123°22'1020.0
2017-May-18 22:59N 49°15' W 123°37'6 3.0
2017-May-18 21:04N 49°15' W 123°46'119.9
2017-May-18 21:00N 49°16' W 123°44'1019.9
2017-May-18 20:30N 49°18' W 123°29'1018.9
2017-May-18 20:00N 49°23' W 123°17'0 0.5
2017-May-18 19:15N 49°23' W 123°16'313.2
2017-May-18 19:00N 49°20' W 123°20'1020.3
2017-May-18 18:30N 49°17' W 123°35'8 4.5
2017-May-18 16:41N 49°15' W 123°47'420.1
2017-May-18 16:30N 49°16' W 123°41'1019.9
2017-May-18 16:00N 49°18' W 123°26'8 7.1
2017-May-18 14:53N 49°23' W 123°16'616.6
2017-May-18 14:30N 49°19' W 123°24'15 1.6
2017-May-18 05:09N 49°15' W 123°47'320.5
2017-May-18 05:00N 49°16' W 123°43'1020.5
2017-May-18 04:30N 49°19' W 123°28'8 9.5
2017-May-18 03:37N 49°23' W 123°16'113.1
2017-May-18 03:30N 49°22' W 123°18'918.5
2017-May-18 03:00N 49°17' W 123°30'11 5.9
2017-May-18 01:11N 49°16' W 123°47'420.5
2017-May-18 01:00N 49°17' W 123°42'1020.1
2017-May-18 00:30N 49°19' W 123°26'8 8.0
2017-May-17 23:34N 49°23' W 123°16'1 8.2
2017-May-17 23:29N 49°23' W 123°17'1019.6
2017-May-17 23:00N 49°18' W 123°30'1020.6
2017-May-17 22:30N 49°15' W 123°45'8 6.1
2017-May-17 21:14N 49°12' W 123°56'620.0
2017-May-17 20:57N 49°15' W 123°48'920.0
2017-May-17 20:31N 49°20' W 123°37'1018.4
2017-May-17 19:58N 49°25' W 123°24'5 5.5
2017-May-17 19:02N 49°23' W 123°16'011.5
2017-May-17 19:00N 49°23' W 123°16'919.2
2017-May-17 18:30N 49°18' W 123°28'11 5.8
2017-May-17 16:35N 49°16' W 123°45'220.5
2017-May-17 16:30N 49°16' W 123°43'1020.2
2017-May-17 16:01N 49°19' W 123°28'913.6
2017-May-17 15:23N 49°23' W 123°16'1 2.1
2017-May-17 15:00N 49°23' W 123°17'1019.5
2017-May-17 14:30N 49°18' W 123°30'11 1.2
2017-May-17 05:12N 49°16' W 123°46'419.8
2017-May-17 05:00N 49°17' W 123°41'1020.4
2017-May-17 04:30N 49°19' W 123°25'7 8.6
2017-May-17 03:42N 49°23' W 123°16'314.8
2017-May-17 03:30N 49°21' W 123°20'1019.7
2017-May-17 03:00N 49°17' W 123°34'1612.8
2017-May-17 01:43N 49°12' W 123°57'617.3
2017-May-17 01:24N 49°15' W 123°50'820.1
2017-May-17 01:00N 49°17' W 123°39'1020.3
2017-May-17 00:30N 49°19' W 123°23'6 6.7
2017-May-16 23:38N 49°23' W 123°16'1 6.0
2017-May-16 23:31N 49°23' W 123°17'1019.3
2017-May-16 23:01N 49°17' W 123°29'1220.2
2017-May-16 22:26N 49°14' W 123°47'7 5.6
2017-May-16 21:06N 49°12' W 123°57'717.5
2017-May-16 20:42N 49°15' W 123°48'419.6
2017-May-16 20:30N 49°16' W 123°42'1020.2
2017-May-16 20:00N 49°19' W 123°27'815.6
2017-May-16 19:29N 49°23' W 123°16'1 1.4
2017-May-16 19:00N 49°23' W 123°17'1019.5
2017-May-16 18:30N 49°18' W 123°29'12 7.0
2017-May-16 16:43N 49°15' W 123°48'419.4
2017-May-16 16:30N 49°17' W 123°42'1019.8
2017-May-16 16:00N 49°19' W 123°28'813.7
2017-May-16 15:24N 49°23' W 123°16'1 2.7
2017-May-16 15:01N 49°23' W 123°18'1019.5
2017-May-16 14:31N 49°17' W 123°30'14 1.6
2017-May-16 05:28N 49°14' W 123°51'920.0
2017-May-16 05:00N 49°18' W 123°38'1020.3
2017-May-16 04:30N 49°20' W 123°23'5 7.5
2017-May-16 03:48N 49°23' W 123°16'516.2
2017-May-16 03:30N 49°20' W 123°21'1020.0
2017-May-16 03:00N 49°16' W 123°36'1511.9
2017-May-16 01:47N 49°12' W 123°57'819.4
2017-May-16 01:22N 49°16' W 123°46'720.0
2017-May-16 01:00N 49°18' W 123°36'1020.1
2017-May-16 00:31N 49°20' W 123°21'4 5.1
2017-May-15 23:42N 49°23' W 123°16'315.5
2017-May-15 23:30N 49°21' W 123°20'1019.5
2017-May-15 23:00N 49°17' W 123°33'1710.6
2017-May-15 21:27N 49°12' W 123°57'817.8
2017-May-15 21:00N 49°15' W 123°46'1019.9
2017-May-15 20:30N 49°18' W 123°32'918.7
2017-May-15 20:00N 49°22' W 123°19'2 2.3
2017-May-15 19:14N 49°23' W 123°16'314.8
2017-May-15 19:00N 49°21' W 123°20'1020.0
2017-May-15 18:30N 49°17' W 123°34'10 6.1
2017-May-15 16:49N 49°15' W 123°50'619.3
2017-May-15 16:30N 49°16' W 123°41'1019.8
2017-May-15 16:00N 49°19' W 123°27'8 7.9
2017-May-15 15:02N 49°23' W 123°16'011.0
2017-May-15 15:00N 49°23' W 123°16'918.1
2017-May-15 14:30N 49°18' W 123°28'20 2.3
2017-May-15 05:46N 49°12' W 123°57'619.3
2017-May-15 05:29N 49°14' W 123°49'919.9
2017-May-15 05:01N 49°18' W 123°36'1020.2
2017-May-15 04:30N 49°20' W 123°21'4 7.8
2017-May-15 04:01N 49°23' W 123°16'4 7.7
2017-May-15 03:30N 49°20' W 123°21'1020.1
2017-May-15 03:00N 49°17' W 123°35'14 9.2
2017-May-15 01:32N 49°13' W 123°55'719.9
2017-May-15 01:12N 49°15' W 123°46'420.1
2017-May-15 01:00N 49°17' W 123°40'1020.3
2017-May-15 00:30N 49°19' W 123°25'7 7.8
2017-May-14 23:39N 49°23' W 123°16'1 9.4
2017-May-14 23:30N 49°23' W 123°18'1019.3
2017-May-14 23:00N 49°17' W 123°31'17 9.5
2017-May-14 21:11N 49°12' W 123°56'519.5
2017-May-14 20:55N 49°15' W 123°49'820.0
2017-May-14 20:31N 49°17' W 123°37'1019.9
2017-May-14 20:00N 49°20' W 123°22'5 7.7
2017-May-14 19:25N 49°23' W 123°16'2 4.0
2017-May-14 19:00N 49°22' W 123°19'1019.7
2017-May-14 18:30N 49°17' W 123°32'1610.8
2017-May-14 16:59N 49°13' W 123°56'1019.5
2017-May-14 16:29N 49°17' W 123°42'1019.8
2017-May-14 16:00N 49°19' W 123°28'816.0
2017-May-14 15:29N 49°23' W 123°16'1 1.4
2017-May-14 15:00N 49°23' W 123°17'918.7
2017-May-14 14:30N 49°18' W 123°28'  
Track history (hours):
 
Tides and Currents Weather Stations Pressure Air Temp Water Temp Dewpoint Dewpoint Depression Visibility Wind Speed Wind Dir Waves Ship Positions

Queen Of Cowichan

Last reported at 2017-May-24 05:50 UTC. Time now 2017-May-24 07:57 UTC.
Position N 49°16' W 123°45'.

Length 139 m.

Type: Passenger vessel. MMSI: 316001251.

Date/timePositionNaut miles runAvg speedWind from/ knotsBaromVisibWave heightAir tempDewpointWater temp
2017-May-24 05:50N 49°16' W 123°45'619.1
2017-May-24 05:30N 49°17' W 123°36'1019.3
2017-May-24 05:00N 49°20' W 123°21'4 5.7
2017-May-24 04:17N 49°23' W 123°16'1 4.7
2017-May-24 04:00N 49°22' W 123°18'1019.5
2017-May-24 03:30N 49°16' W 123°30'12 6.6
2017-May-24 01:37N 49°15' W 123°49'318.9
2017-May-24 01:29N 49°15' W 123°45'918.8
2017-May-24 01:00N 49°18' W 123°32'1018.9
2017-May-24 00:30N 49°22' W 123°18'2 2.2
2017-May-23 23:46N 49°23' W 123°16'517.1
2017-May-23 23:30N 49°20' W 123°21'1020.5
2017-May-23 23:00N 49°16' W 123°36'12 7.1
2017-May-23 21:19N 49°13' W 123°54'720.0
2017-May-23 20:59N 49°16' W 123°45'1019.9
2017-May-23 20:30N 49°18' W 123°30'918.8
2017-May-23 20:01N 49°23' W 123°18'1 1.2
2017-May-23 19:14N 49°23' W 123°16'415.8
2017-May-23 19:00N 49°20' W 123°21'918.6
2017-May-23 18:30N 49°17' W 123°34'1220.8
2017-May-23 17:57N 49°14' W 123°51'1 0.6
2017-May-23 16:48N 49°14' W 123°50'619.6
2017-May-23 16:30N 49°16' W 123°41'1019.9
2017-May-23 16:01N 49°18' W 123°27'8 8.6
2017-May-23 15:03N 49°23' W 123°16'0 7.8
2017-May-23 15:00N 49°23' W 123°16'917.7
2017-May-23 14:30N 49°18' W 123°27'20 2.4
2017-May-23 06:02N 49°12' W 123°57'319.6
2017-May-23 05:54N 49°13' W 123°53'820.0
2017-May-23 05:30N 49°16' W 123°42'1020.0
2017-May-23 05:00N 49°19' W 123°28'816.4
2017-May-23 04:30N 49°23' W 123°16'0 0.7
2017-May-23 03:59N 49°23' W 123°16'918.3
2017-May-23 03:30N 49°18' W 123°27'1020.7
2017-May-23 03:00N 49°15' W 123°42'10 9.6
2017-May-23 01:56N 49°12' W 123°57'818.4
2017-May-23 01:30N 49°15' W 123°47'1019.9
2017-May-23 01:00N 49°18' W 123°32'1019.1
2017-May-23 00:30N 49°22' W 123°19'2 2.8
2017-May-22 23:54N 49°23' W 123°16'718.0
2017-May-22 23:30N 49°18' W 123°25'1020.5
2017-May-22 23:00N 49°16' W 123°40'12 9.1
2017-May-22 21:43N 49°12' W 123°57'619.2
2017-May-22 21:23N 49°15' W 123°48'820.2
2017-May-22 21:00N 49°17' W 123°37'1020.3
2017-May-22 20:30N 49°19' W 123°22'5 6.7
2017-May-22 19:45N 49°23' W 123°16'2 8.3
2017-May-22 19:31N 49°22' W 123°19'1019.3
2017-May-22 19:00N 49°17' W 123°32'1020.6
2017-May-22 18:30N 49°15' W 123°47'7 6.7
2017-May-22 17:31N 49°12' W 123°57'012.8
2017-May-22 17:30N 49°12' W 123°57'1019.7
2017-May-22 17:00N 49°16' W 123°43'1020.1
2017-May-22 16:30N 49°19' W 123°28'9 8.2
2017-May-22 15:28N 49°23' W 123°16'0 0.7
2017-May-22 14:53N 49°23' W 123°16'1719.0
2017-May-22 14:00N 49°15' W 123°39'1120.7
2017-May-22 13:29N 49°13' W 123°55'1 0.2
2017-May-22 06:00N 49°12' W 123°57'1019.9
2017-May-22 05:30N 49°16' W 123°43'1120.7
2017-May-22 05:00N 49°19' W 123°28'9 8.6
2017-May-22 04:00N 49°23' W 123°16'917.9
2017-May-22 03:30N 49°18' W 123°28'1020.6
2017-May-22 03:00N 49°15' W 123°43'10 8.9
2017-May-22 01:54N 49°12' W 123°57'818.5
2017-May-22 01:29N 49°15' W 123°47'1019.7
2017-May-22 01:00N 49°18' W 123°33'1019.2
2017-May-22 00:30N 49°22' W 123°19'2 2.7
2017-May-21 23:40N 49°23' W 123°16'214.5
2017-May-21 23:30N 49°21' W 123°19'1019.8
2017-May-21 23:00N 49°17' W 123°33'1020.7
2017-May-21 22:30N 49°14' W 123°48'4 3.0
2017-May-21 21:15N 49°13' W 123°54'519.9
2017-May-21 21:00N 49°15' W 123°47'1020.0
2017-May-21 20:31N 49°18' W 123°32'1019.2
2017-May-21 20:00N 49°22' W 123°19'2 2.4
2017-May-21 19:14N 49°23' W 123°16'314.9
2017-May-21 19:00N 49°21' W 123°20'1019.9
2017-May-21 18:31N 49°16' W 123°34'1220.8
2017-May-21 17:56N 49°14' W 123°51'4 4.7
2017-May-21 17:03N 49°12' W 123°57'215.4
2017-May-21 16:54N 49°13' W 123°54'820.1
2017-May-21 16:30N 49°16' W 123°43'1020.3
2017-May-21 16:00N 49°19' W 123°28'910.5
2017-May-21 15:11N 49°23' W 123°16'0 0.0
2017-May-21 14:57N 49°23' W 123°16'614.4
2017-May-21 14:30N 49°19' W 123°24'19 2.2
2017-May-21 05:51N 49°14' W 123°53'720.3
2017-May-21 05:30N 49°16' W 123°43'1020.3
2017-May-21 05:00N 49°19' W 123°28'916.4
2017-May-21 04:29N 49°23' W 123°16'0 0.3
2017-May-21 04:01N 49°23' W 123°16'917.7
2017-May-21 03:30N 49°18' W 123°28'1120.7
2017-May-21 02:59N 49°15' W 123°44'9 8.9
2017-May-21 01:56N 49°12' W 123°57'819.3
2017-May-21 01:30N 49°15' W 123°46'1019.7
2017-May-21 01:00N 49°18' W 123°31'918.6
2017-May-21 00:30N 49°22' W 123°19'2 2.0
2017-May-20 23:40N 49°23' W 123°16'214.4
2017-May-20 23:30N 49°22' W 123°19'1019.9
2017-May-20 23:00N 49°17' W 123°33'1710.3
2017-May-20 21:24N 49°12' W 123°57'819.8
2017-May-20 21:00N 49°15' W 123°46'1020.1
2017-May-20 20:30N 49°18' W 123°31'1019.1
2017-May-20 20:00N 49°22' W 123°18'1 1.9
2017-May-20 19:14N 49°23' W 123°16'314.8
2017-May-20 19:00N 49°21' W 123°20'1020.1
2017-May-20 18:30N 49°17' W 123°34'1510.5
2017-May-20 17:03N 49°12' W 123°57'519.2
2017-May-20 16:46N 49°14' W 123°49'520.0
2017-May-20 16:31N 49°16' W 123°42'1020.1
2017-May-20 16:00N 49°19' W 123°27'810.7
2017-May-20 15:15N 49°23' W 123°16'0 0.8
2017-May-20 14:52N 49°23' W 123°16'1618.8
2017-May-20 14:00N 49°16' W 123°39'11 1.4
2017-May-20 05:57N 49°13' W 123°55'920.2
2017-May-20 05:30N 49°16' W 123°43'1020.1
2017-May-20 05:00N 49°19' W 123°28'915.5
2017-May-20 04:27N 49°23' W 123°16'1 1.3
2017-May-20 04:00N 49°23' W 123°16'918.8
2017-May-20 03:31N 49°18' W 123°28'1020.8
2017-May-20 03:01N 49°15' W 123°43'5 4.0
2017-May-20 01:41N 49°14' W 123°52'420.4
2017-May-20 01:29N 49°16' W 123°46'919.4
2017-May-20 01:00N 49°18' W 123°33'918.9
2017-May-20 00:30N 49°22' W 123°19'2 2.7
2017-May-19 23:42N 49°23' W 123°16'212.7
2017-May-19 23:30N 49°21' W 123°19'1020.1
2017-May-19 23:00N 49°17' W 123°33'1120.9
2017-May-19 22:28N 49°14' W 123°50'2 1.8
2017-May-19 21:07N 49°15' W 123°47'220.0
2017-May-19 21:00N 49°16' W 123°43'1019.8
2017-May-19 20:30N 49°19' W 123°29'918.4
2017-May-19 20:00N 49°23' W 123°17'0 0.5
2017-May-19 19:23N 49°23' W 123°16'717.7
2017-May-19 19:00N 49°19' W 123°24'1020.7
2017-May-19 18:30N 49°16' W 123°40'3 1.6
2017-May-19 16:37N 49°15' W 123°44'220.1
2017-May-19 16:30N 49°16' W 123°41'1019.7
2017-May-19 16:00N 49°19' W 123°27'8 7.3
2017-May-19 14:56N 49°23' W 123°16'1617.2
2017-May-19 14:00N 49°16' W 123°39'13 1.7
2017-May-19 06:13N 49°12' W 123°57'518.1
2017-May-19 05:58N 49°14' W 123°51'920.3
2017-May-19 05:30N 49°17' W 123°38'1020.1
2017-May-19 05:00N 49°19' W 123°23'510.1
2017-May-19 04:28N 49°23' W 123°16'3 6.3
2017-May-19 04:00N 49°21' W 123°20'1019.6
2017-May-19 03:30N 49°17' W 123°34'13 7.8
2017-May-19 01:50N 49°14' W 123°53'720.1
2017-May-19 01:30N 49°16' W 123°44'1020.0
2017-May-19 01:00N 49°18' W 123°29'9 7.9
2017-May-18 23:50N 49°23' W 123°17'617.3
2017-May-18 23:30N 49°19' W 123°22'1020.0
2017-May-18 22:59N 49°15' W 123°37'6 3.0
2017-May-18 21:04N 49°15' W 123°46'119.9
2017-May-18 21:00N 49°16' W 123°44'1019.9
2017-May-18 20:30N 49°18' W 123°29'1018.9
2017-May-18 20:00N 49°23' W 123°17'0 0.5
2017-May-18 19:15N 49°23' W 123°16'313.2
2017-May-18 19:00N 49°20' W 123°20'1020.3
2017-May-18 18:30N 49°17' W 123°35'8 4.5
2017-May-18 16:41N 49°15' W 123°47'420.1
2017-May-18 16:30N 49°16' W 123°41'1019.9
2017-May-18 16:00N 49°18' W 123°26'8 7.1
2017-May-18 14:53N 49°23' W 123°16'616.6
2017-May-18 14:30N 49°19' W 123°24'15 1.6
2017-May-18 05:09N 49°15' W 123°47'320.5
2017-May-18 05:00N 49°16' W 123°43'1020.5
2017-May-18 04:30N 49°19' W 123°28'8 9.5
2017-May-18 03:37N 49°23' W 123°16'113.1
2017-May-18 03:30N 49°22' W 123°18'918.5
2017-May-18 03:00N 49°17' W 123°30'11 5.9
2017-May-18 01:11N 49°16' W 123°47'420.5
2017-May-18 01:00N 49°17' W 123°42'1020.1
2017-May-18 00:30N 49°19' W 123°26'8 8.0
2017-May-17 23:34N 49°23' W 123°16'1 8.2
2017-May-17 23:29N 49°23' W 123°17'1019.6
2017-May-17 23:00N 49°18' W 123°30'1020.6
2017-May-17 22:30N 49°15' W 123°45'8 6.1
2017-May-17 21:14N 49°12' W 123°56'620.0
2017-May-17 20:57N 49°15' W 123°48'920.0
2017-May-17 20:31N 49°20' W 123°37'1018.4
2017-May-17 19:58N 49°25' W 123°24'5 5.5
2017-May-17 19:02N 49°23' W 123°16'011.5
2017-May-17 19:00N 49°23' W 123°16'919.2
2017-May-17 18:30N 49°18' W 123°28'11 5.8
2017-May-17 16:35N 49°16' W 123°45'220.5
2017-May-17 16:30N 49°16' W 123°43'1020.2
2017-May-17 16:01N 49°19' W 123°28'913.6
2017-May-17 15:23N 49°23' W 123°16'1 2.1
2017-May-17 15:00N 49°23' W 123°17'1019.5
2017-May-17 14:30N 49°18' W 123°30'11 1.2
2017-May-17 05:12N 49°16' W 123°46'419.8
2017-May-17 05:00N 49°17' W 123°41'1020.4
2017-May-17 04:30N 49°19' W 123°25'7 8.6
2017-May-17 03:42N 49°23' W 123°16'314.8
2017-May-17 03:30N 49°21' W 123°20'1019.7
2017-May-17 03:00N 49°17' W 123°34'1612.8
2017-May-17 01:43N 49°12' W 123°57'617.3
2017-May-17 01:24N 49°15' W 123°50'820.1
2017-May-17 01:00N 49°17' W 123°39'1020.3
2017-May-17 00:30N 49°19' W 123°23'6 6.7
2017-May-16 23:38N 49°23' W 123°16'1 6.0
2017-May-16 23:31N 49°23' W 123°17'1019.3
2017-May-16 23:01N 49°17' W 123°29'1220.2
2017-May-16 22:26N 49°14' W 123°47'7 5.6
2017-May-16 21:06N 49°12' W 123°57'717.5
2017-May-16 20:42N 49°15' W 123°48'419.6
2017-May-16 20:30N 49°16' W 123°42'1020.2
2017-May-16 20:00N 49°19' W 123°27'815.6
2017-May-16 19:29N 49°23' W 123°16'1 1.4
2017-May-16 19:00N 49°23' W 123°17'1019.5
2017-May-16 18:30N 49°18' W 123°29'12 7.0
2017-May-16 16:43N 49°15' W 123°48'419.4
2017-May-16 16:30N 49°17' W 123°42'1019.8
2017-May-16 16:00N 49°19' W 123°28'813.7
2017-May-16 15:24N 49°23' W 123°16'1 2.7
2017-May-16 15:01N 49°23' W 123°18'1019.5
2017-May-16 14:31N 49°17' W 123°30'14 1.6
2017-May-16 05:28N 49°14' W 123°51'920.0
2017-May-16 05:00N 49°18' W 123°38'1020.3
2017-May-16 04:30N 49°20' W 123°23'5 7.5
2017-May-16 03:48N 49°23' W 123°16'516.2
2017-May-16 03:30N 49°20' W 123°21'1020.0
2017-May-16 03:00N 49°16' W 123°36'1511.9
2017-May-16 01:47N 49°12' W 123°57'819.4
2017-May-16 01:22N 49°16' W 123°46'720.0
2017-May-16 01:00N 49°18' W 123°36'1020.1
2017-May-16 00:31N 49°20' W 123°21'4 5.1
2017-May-15 23:42N 49°23' W 123°16'315.5
2017-May-15 23:30N 49°21' W 123°20'1019.5
2017-May-15 23:00N 49°17' W 123°33'1710.6
2017-May-15 21:27N 49°12' W 123°57'817.8
2017-May-15 21:00N 49°15' W 123°46'1019.9
2017-May-15 20:30N 49°18' W 123°32'918.7
2017-May-15 20:00N 49°22' W 123°19'2 2.3
2017-May-15 19:14N 49°23' W 123°16'314.8
2017-May-15 19:00N 49°21' W 123°20'1020.0
2017-May-15 18:30N 49°17' W 123°34'10 6.1
2017-May-15 16:49N 49°15' W 123°50'619.3
2017-May-15 16:30N 49°16' W 123°41'1019.8
2017-May-15 16:00N 49°19' W 123°27'8 7.9
2017-May-15 15:02N 49°23' W 123°16'011.0
2017-May-15 15:00N 49°23' W 123°16'918.1
2017-May-15 14:30N 49°18' W 123°28'20 2.3
2017-May-15 05:46N 49°12' W 123°57'619.3
2017-May-15 05:29N 49°14' W 123°49'919.9
2017-May-15 05:01N 49°18' W 123°36'1020.2
2017-May-15 04:30N 49°20' W 123°21'4 7.8
2017-May-15 04:01N 49°23' W 123°16'4 7.7
2017-May-15 03:30N 49°20' W 123°21'1020.1
2017-May-15 03:00N 49°17' W 123°35'14 9.2
2017-May-15 01:32N 49°13' W 123°55'719.9
2017-May-15 01:12N 49°15' W 123°46'420.1
2017-May-15 01:00N 49°17' W 123°40'1020.3
2017-May-15 00:30N 49°19' W 123°25'7 7.8
2017-May-14 23:39N 49°23' W 123°16'1 9.4
2017-May-14 23:30N 49°23' W 123°18'1019.3
2017-May-14 23:00N 49°17' W 123°31'17 9.5
2017-May-14 21:11N 49°12' W 123°56'519.5
2017-May-14 20:55N 49°15' W 123°49'820.0
2017-May-14 20:31N 49°17' W 123°37'1019.9
2017-May-14 20:00N 49°20' W 123°22'5 7.7
2017-May-14 19:25N 49°23' W 123°16'2 4.0
2017-May-14 19:00N 49°22' W 123°19'1019.7
2017-May-14 18:30N 49°17' W 123°32'1610.8
2017-May-14 16:59N 49°13' W 123°56'1019.5
2017-May-14 16:29N 49°17' W 123°42'1019.8
2017-May-14 16:00N 49°19' W 123°28'816.0
2017-May-14 15:29N 49°23' W 123°16'1 1.4
2017-May-14 15:00N 49°23' W 123°17'918.7
2017-May-14 14:30N 49°18' W 123°28'  

Dump ship's entire track history